Time;durP1;ratioP1;P1;durP2;ratioP2;P2;SDS_P1;SDS_P2;PMS_P1;PMS_P2;Temp;Humidity;BMP_temperature;BMP_pressure;BME280_temperature;BME280_humidity;BME280_pressure;Samples;Min_cycle;Max_cycle;Signal;HPM_P1;HPM_P2
2021/03/27 00:00:22;;;;;;;;;;;;;;;21.17;50.42;100923.56;2113169;28;2142;-39
2021/03/27 00:01:23;;;;;;;;;;;;;;;21.17;50.31;100926.41;2113145;28;2165;-37
2021/03/27 00:02:24;;;;;;;;;;;;;;;21.17;50.38;100923.56;2115345;28;1122;-34
2021/03/27 00:03:25;;;;;;;;;;;;;;;21.17;50.29;100922.75;2113849;28;3886;-35
2021/03/27 00:04:27;;;;;;;;;;;;;;;21.18;50.48;100930.13;2110533;28;2142;-40
2021/03/27 00:05:28;;;;;;;;;;;;;;;21.17;50.31;100925.59;2115031;28;1279;-40
2021/03/27 00:06:31;;;;;;;;;;;;;;;21.17;50.50;100920.72;2115185;28;1398;-35
2021/03/27 00:07:32;;;;;;;;;;;;;;;21.17;50.28;100925.59;2111894;28;1652;-35
2021/03/27 00:08:33;;;;;;;;;;;;;;;21.17;50.44;100920.72;2115852;28;2105;-35
2021/03/27 00:09:34;;;;;;;;;;;;;;;21.17;50.38;100915.03;2118665;27;2368;-36
2021/03/27 00:10:34;;;;;;;;;;;;;;;21.17;50.28;100920.72;2112897;27;2347;-40
2021/03/27 00:11:35;;;;;;;;;;;;;;;21.17;50.39;100912.19;2112680;28;2188;-38
2021/03/27 00:12:36;;;;;;;;;;;;;;;21.17;50.34;100915.03;2115861;28;1460;-37
2021/03/27 00:13:37;;;;;;;;;;;;;;;21.17;50.36;100917.88;2115166;28;2040;-36
2021/03/27 00:14:39;;;;;;;;;;;;;;;21.17;50.36;100915.03;2112118;28;2098;-34
2021/03/27 00:15:55;;;;;;;;;;;;;;;21.17;50.45;100908.53;2114996;28;1048;-38
2021/03/27 00:16:56;;;;;;;;;;;;;;;21.19;50.48;100909.00;2115626;28;1074;-39
2021/03/27 00:17:58;;;;;;;;;;;;;;;21.18;50.61;100916.72;2115257;28;1570;-35
2021/03/27 00:18:59;;;;;;;;;;;;;;;21.19;50.54;100911.84;2114581;28;2097;-38
2021/03/27 00:20:00;;;;;;;;;;;;;;;21.18;50.61;100908.19;2113998;28;2516;-35
2021/03/27 00:21:01;;;;;;;;;;;;;;;21.19;50.73;100911.84;2112225;28;2652;-36
2021/03/27 00:22:02;;;;;;;;;;;;;;;21.18;50.70;100905.34;2113379;28;1858;-35
2021/03/27 00:23:03;;;;;;;;;;;;;;;21.19;50.67;100903.31;2114244;28;2530;-38
2021/03/27 00:24:03;;;;;;;;;;;;;;;21.19;50.69;100901.28;2115362;28;1956;-39
2021/03/27 00:25:04;;;;;;;;;;;;;;;21.20;50.70;100908.66;2111863;28;2114;-33
2021/03/27 00:26:05;;;;;;;;;;;;;;;21.19;50.61;100894.78;2114901;28;1617;-34
2021/03/27 00:27:06;;;;;;;;;;;;;;;21.18;50.73;100896.81;2115169;28;1098;-38
2021/03/27 00:28:07;;;;;;;;;;;;;;;21.18;50.81;100893.13;2115422;28;1906;-37
2021/03/27 00:29:08;;;;;;;;;;;;;;;21.18;50.88;100898.81;2113152;28;2149;-34
2021/03/27 00:30:09;;;;;;;;;;;;;;;21.17;50.69;100895.13;2108762;28;2107;-36
2021/03/27 00:31:10;;;;;;;;;;;;;;;21.17;50.87;100892.28;2113408;28;2201;-36
2021/03/27 00:32:10;;;;;;;;;;;;;;;21.18;50.88;100887.44;2112756;28;2255;-37
2021/03/27 00:33:11;;;;;;;;;;;;;;;21.18;50.72;100890.28;2115435;28;1568;-38
2021/03/27 00:34:13;;;;;;;;;;;;;;;21.17;50.70;100886.59;2113397;28;2177;-37
2021/03/27 00:35:13;;;;;;;;;;;;;;;21.17;50.71;100886.59;2111512;28;1594;-38
2021/03/27 00:36:14;;;;;;;;;;;;;;;21.17;50.74;100880.91;2114986;28;3886;-37
2021/03/27 00:37:15;;;;;;;;;;;;;;;21.16;50.96;100884.94;2113838;28;2165;-36
2021/03/27 00:38:16;;;;;;;;;;;;;;;21.17;50.75;100882.91;2113768;28;2164;-36
2021/03/27 00:39:17;;;;;;;;;;;;;;;21.17;50.77;100880.06;2115487;28;1204;-35
2021/03/27 00:40:18;;;;;;;;;;;;;;;21.17;50.82;100882.91;2115224;28;1305;-35
2021/03/27 00:41:18;;;;;;;;;;;;;;;21.16;50.81;100882.09;2115567;28;1395;-35
2021/03/27 00:42:19;;;;;;;;;;;;;;;21.16;50.91;100879.25;2113661;28;2175;-34
2021/03/27 00:43:20;;;;;;;;;;;;;;;21.17;50.93;100877.22;2115355;28;1435;-37
2021/03/27 00:44:21;;;;;;;;;;;;;;;21.16;50.92;100876.41;2110484;28;2186;-34
2021/03/27 00:45:21;;;;;;;;;;;;;;;21.16;50.81;100876.41;2114505;28;1592;-34
2021/03/27 00:46:22;;;;;;;;;;;;;;;21.17;50.84;100871.53;2114137;28;1699;-38
2021/03/27 00:47:25;;;;;;;;;;;;;;;21.17;51.05;100871.53;2115142;28;1394;-35
2021/03/27 00:48:26;;;;;;;;;;;;;;;21.17;50.88;100874.38;2114071;28;2114;-33
2021/03/27 00:49:27;;;;;;;;;;;;;;;21.16;50.88;100882.09;2109412;28;2171;-37
2021/03/27 00:50:28;;;;;;;;;;;;;;;21.17;51.02;100869.50;2115609;28;1181;-36
2021/03/27 00:51:29;;;;;;;;;;;;;;;21.17;50.94;100877.22;2114878;28;1130;-36
2021/03/27 00:52:29;;;;;;;;;;;;;;;21.17;51.13;100869.50;2111187;28;2175;-37
2021/03/27 00:53:30;;;;;;;;;;;;;;;21.17;51.08;100868.69;2115019;28;1585;-36
2021/03/27 00:54:31;;;;;;;;;;;;;;;21.17;51.06;100863.81;2113765;28;2163;-37
2021/03/27 00:55:32;;;;;;;;;;;;;;;21.17;50.97;100860.16;2112701;28;2514;-36
2021/03/27 00:56:32;;;;;;;;;;;;;;;21.17;51.14;100866.66;2114097;28;1551;-38
2021/03/27 00:57:33;;;;;;;;;;;;;;;21.17;51.03;100863.00;2113241;28;2146;-37
2021/03/27 00:58:34;;;;;;;;;;;;;;;21.17;51.06;100866.66;2115439;28;1196;-34
2021/03/27 00:59:38;;;;;;;;;;;;;;;21.17;50.99;100860.16;2114957;28;1367;-37
2021/03/27 01:00:39;;;;;;;;;;;;;;;21.17;51.15;100860.16;2112410;28;2191;-37
2021/03/27 01:01:40;;;;;;;;;;;;;;;21.17;51.19;100863.00;2114437;28;1205;-34
2021/03/27 01:02:41;;;;;;;;;;;;;;;21.17;51.18;100860.16;2109830;28;2229;-37
2021/03/27 01:03:42;;;;;;;;;;;;;;;21.17;51.18;100860.97;2114378;28;1429;-37
2021/03/27 01:04:43;;;;;;;;;;;;;;;21.17;51.00;100848.78;2106240;28;1508;-39
2021/03/27 01:05:43;;;;;;;;;;;;;;;21.17;51.14;100851.63;2105969;28;2236;-37
2021/03/27 01:06:44;;;;;;;;;;;;;;;21.17;51.04;100852.44;2115475;28;1478;-32
2021/03/27 01:07:45;;;;;;;;;;;;;;;21.16;51.14;100844.28;2113455;28;1757;-37
2021/03/27 01:08:46;;;;;;;;;;;;;;;21.17;51.27;100848.78;2115127;28;2167;-38
2021/03/27 01:09:47;;;;;;;;;;;;;;;21.16;51.15;100850.78;2112462;28;2471;-33
2021/03/27 01:10:47;;;;;;;;;;;;;;;21.16;51.13;100841.44;2115428;28;1228;-38
2021/03/27 01:11:48;;;;;;;;;;;;;;;21.16;51.12;100833.72;2115005;28;1663;-33
2021/03/27 01:12:49;;;;;;;;;;;;;;;21.16;51.24;100839.41;2113617;28;2190;-36
2021/03/27 01:13:50;;;;;;;;;;;;;;;21.15;51.16;100837.75;2113320;28;2360;-38
2021/03/27 01:14:51;;;;;;;;;;;;;;;21.15;51.18;100834.91;2113809;28;1613;-35
2021/03/27 01:15:52;;;;;;;;;;;;;;;21.16;51.23;100833.72;2114740;28;1251;-36
2021/03/27 01:16:52;;;;;;;;;;;;;;;21.15;51.37;100832.06;2115624;28;1124;-33
2021/03/27 01:17:53;;;;;;;;;;;;;;;21.15;51.22;100829.22;2111509;28;2185;-38
2021/03/27 01:18:54;;;;;;;;;;;;;;;21.15;51.32;100829.22;2110319;28;2154;-38
2021/03/27 01:19:55;;;;;;;;;;;;;;;21.16;51.23;100824.38;2108691;28;2512;-38
2021/03/27 01:20:56;;;;;;;;;;;;;;;21.15;51.35;100825.56;2115555;28;1374;-35
2021/03/27 01:21:57;;;;;;;;;;;;;;;21.15;51.16;100829.22;2115593;28;1192;-34
2021/03/27 01:22:59;;;;;;;;;;;;;;;21.16;51.25;100824.38;2111667;28;2372;-36
2021/03/27 01:24:00;;;;;;;;;;;;;;;21.16;51.39;100818.69;2109496;28;2426;-36
2021/03/27 01:25:00;;;;;;;;;;;;;;;21.16;51.39;100819.50;2110205;28;2276;-38
2021/03/27 01:26:01;;;;;;;;;;;;;;;21.16;51.54;100821.53;2112947;28;2618;-39
2021/03/27 01:27:02;;;;;;;;;;;;;;;21.16;51.51;100810.97;2112982;28;2476;-37
2021/03/27 01:28:03;;;;;;;;;;;;;;;21.17;51.50;100814.63;2111738;28;1929;-35
2021/03/27 01:29:04;;;;;;;;;;;;;;;21.16;51.45;100813.81;2116915;28;1572;-36
2021/03/27 01:30:04;;;;;;;;;;;;;;;21.16;51.56;100816.66;2116782;28;1211;-36
2021/03/27 01:31:05;;;;;;;;;;;;;;;21.17;51.56;100814.63;2113897;28;2138;-38
2021/03/27 01:32:06;;;;;;;;;;;;;;;21.17;51.60;100806.09;2114934;28;2171;-34
2021/03/27 01:33:07;;;;;;;;;;;;;;;21.16;51.54;100805.28;2116811;28;1851;-35
2021/03/27 01:34:08;;;;;;;;;;;;;;;21.17;51.56;100808.94;2111231;28;2165;-35
2021/03/27 01:35:09;;;;;;;;;;;;;;;21.16;51.52;100799.59;2113492;28;1496;-36
2021/03/27 01:36:10;;;;;;;;;;;;;;;21.16;51.49;100801.59;2115310;28;1253;-37
2021/03/27 01:37:10;;;;;;;;;;;;;;;21.15;51.46;100795.09;2115546;28;3984;-38
2021/03/27 01:38:11;;;;;;;;;;;;;;;21.16;51.41;100808.13;2112950;28;2514;-34
2021/03/27 01:39:12;;;;;;;;;;;;;;;21.16;51.46;100798.75;2114498;28;1631;-38
2021/03/27 01:40:13;;;;;;;;;;;;;;;21.15;51.52;100800.78;2117294;28;1528;-38
2021/03/27 01:41:13;;;;;;;;;;;;;;;21.15;51.34;100806.47;2116532;28;1370;-36
2021/03/27 01:42:14;;;;;;;;;;;;;;;21.15;51.31;100792.25;2116012;28;2119;-35
2021/03/27 01:43:15;;;;;;;;;;;;;;;21.15;51.43;100797.13;2112717;28;2514;-36
2021/03/27 01:44:16;;;;;;;;;;;;;;;21.15;51.39;100794.25;2117561;28;1529;-34
2021/03/27 01:45:16;;;;;;;;;;;;;;;21.16;51.48;100795.91;2112760;28;1999;-35
2021/03/27 01:46:17;;;;;;;;;;;;;;;21.16;51.58;100791.06;2116612;28;1434;-37
2021/03/27 01:47:18;;;;;;;;;;;;;;;21.16;51.42;100787.38;2116112;28;1970;-40
2021/03/27 01:48:19;;;;;;;;;;;;;;;21.16;51.66;100793.06;2100369;28;2487;-39
2021/03/27 01:49:21;;;;;;;;;;;;;;;21.15;51.52;100786.56;2103976;28;2284;-34
2021/03/27 01:50:22;;;;;;;;;;;;;;;21.15;51.42;100788.56;2110113;28;2242;-34
2021/03/27 01:51:22;;;;;;;;;;;;;;;21.14;51.32;100782.03;2116845;28;1954;-39
2021/03/27 01:52:23;;;;;;;;;;;;;;;21.13;51.30;100783.22;2110357;28;2347;-37
2021/03/27 01:53:24;;;;;;;;;;;;;;;21.13;51.32;100784.06;2111751;28;2110;-36
2021/03/27 01:54:25;;;;;;;;;;;;;;;21.13;51.30;100786.06;2116886;28;1621;-35
2021/03/27 01:55:25;;;;;;;;;;;;;;;21.14;51.37;100784.88;2114513;28;2229;-38
2021/03/27 01:56:26;;;;;;;;;;;;;;;21.13;51.46;100783.22;2113385;28;2136;-36
2021/03/27 01:57:27;;;;;;;;;;;;;;;21.13;51.37;100777.53;2115699;28;1548;-35
2021/03/27 01:58:28;;;;;;;;;;;;;;;21.13;51.43;100777.53;2116972;28;1078;-34
2021/03/27 01:59:28;;;;;;;;;;;;;;;21.13;51.27;100774.69;2113159;28;2192;-39
2021/03/27 02:00:29;;;;;;;;;;;;;;;21.13;51.20;100774.69;2113305;28;2261;-35
2021/03/27 02:01:30;;;;;;;;;;;;;;;21.12;51.34;100778.75;2108335;28;2156;-35
2021/03/27 02:02:31;;;;;;;;;;;;;;;21.12;51.41;100770.19;2116328;28;1370;-37
2021/03/27 02:03:32;;;;;;;;;;;;;;;21.12;51.28;100775.88;2111402;28;3979;-41
2021/03/27 02:04:33;;;;;;;;;;;;;;;21.12;51.45;100778.75;2110885;28;2215;-35
2021/03/27 02:05:33;;;;;;;;;;;;;;;21.11;51.36;100771.38;2114857;28;2139;-37
2021/03/27 02:06:34;;;;;;;;;;;;;;;21.12;51.40;100776.72;2109252;28;2280;-36
2021/03/27 02:07:35;;;;;;;;;;;;;;;21.12;51.38;100778.75;2113995;28;2385;-34
2021/03/27 02:08:35;;;;;;;;;;;;;;;21.12;51.37;100778.75;2111451;28;2217;-36
2021/03/27 02:09:36;;;;;;;;;;;;;;;21.11;51.40;100772.19;2114931;28;2023;-36
2021/03/27 02:10:37;;;;;;;;;;;;;;;21.11;51.11;100771.38;2114809;28;1573;-37
2021/03/27 02:11:38;;;;;;;;;;;;;;;21.11;51.26;100774.22;2111372;28;2188;-34
2021/03/27 02:12:39;;;;;;;;;;;;;;;21.11;51.12;100777.88;2109176;28;2195;-39
2021/03/27 02:13:39;;;;;;;;;;;;;;;21.10;51.25;100776.22;2115887;28;2661;-35
2021/03/27 02:14:40;;;;;;;;;;;;;;;21.12;51.35;100770.19;2108964;28;2268;-33
2021/03/27 02:15:41;;;;;;;;;;;;;;;21.11;51.34;100771.38;2116737;28;1304;-38
2021/03/27 02:16:42;;;;;;;;;;;;;;;21.11;51.25;100775.03;2113940;28;2257;-35
2021/03/27 02:17:43;;;;;;;;;;;;;;;21.11;51.16;100782.75;2115125;28;2160;-39
2021/03/27 02:18:45;;;;;;;;;;;;;;;21.11;51.35;100774.22;2116321;28;1095;-37
2021/03/27 02:19:46;;;;;;;;;;;;;;;21.10;51.17;100772.56;2110586;28;2215;-37
2021/03/27 02:20:46;;;;;;;;;;;;;;;21.11;51.26;100774.22;2114684;28;1656;-33
2021/03/27 02:21:47;;;;;;;;;;;;;;;21.11;51.31;100768.53;2114086;28;2240;-37
2021/03/27 02:22:48;;;;;;;;;;;;;;;21.12;51.39;100770.19;2110986;28;2204;-38
2021/03/27 02:23:51;;;;;;;;;;;;;;;21.10;51.05;100770.53;2110964;28;2550;-38
2021/03/27 02:24:51;;;;;;;;;;;;;;;21.10;51.44;100769.72;2116072;28;1350;-37
2021/03/27 02:25:52;;;;;;;;;;;;;;;21.11;51.35;100779.91;2116060;28;1441;-34
2021/03/27 02:26:53;;;;;;;;;;;;;;;21.10;51.43;100767.69;2112354;28;2219;-40
2021/03/27 02:27:54;;;;;;;;;;;;;;;21.10;51.18;100769.72;2115187;28;1289;-34
2021/03/27 02:28:55;;;;;;;;;;;;;;;21.10;51.19;100761.19;2109841;28;2214;-34
2021/03/27 02:29:55;;;;;;;;;;;;;;;21.09;51.26;100760.38;2111257;28;2085;-34
2021/03/27 02:30:56;;;;;;;;;;;;;;;21.10;51.25;100766.88;2114591;28;1513;-38
2021/03/27 02:31:57;;;;;;;;;;;;;;;21.10;51.39;100772.56;2112822;28;1885;-35
2021/03/27 02:32:58;;;;;;;;;;;;;;;21.10;51.39;100764.03;2116240;28;1728;-35
2021/03/27 02:33:59;;;;;;;;;;;;;;;21.09;51.21;100763.22;2109475;28;2183;-35
2021/03/27 02:35:00;;;;;;;;;;;;;;;21.09;51.35;100768.91;2116265;28;1125;-35
2021/03/27 02:36:01;;;;;;;;;;;;;;;21.08;51.26;100767.22;2110105;28;1920;-34
2021/03/27 02:37:01;;;;;;;;;;;;;;;21.08;51.21;100764.38;2114110;28;3931;-35
2021/03/27 02:38:02;;;;;;;;;;;;;;;21.08;51.28;100767.22;2115849;28;2186;-37
2021/03/27 02:39:03;;;;;;;;;;;;;;;21.09;51.28;100759.53;2114616;28;2111;-36
2021/03/27 02:40:03;;;;;;;;;;;;;;;21.08;51.33;100758.69;2111494;28;2190;-37
2021/03/27 02:41:04;;;;;;;;;;;;;;;21.09;51.22;100756.69;2110067;28;2131;-40
2021/03/27 02:42:05;;;;;;;;;;;;;;;21.09;51.36;100759.53;2109078;28;2211;-34
2021/03/27 02:43:06;;;;;;;;;;;;;;;21.08;51.38;100758.69;2113525;28;1013;-35
2021/03/27 02:44:07;;;;;;;;;;;;;;;21.07;51.38;100754.19;2113936;28;2352;-35
2021/03/27 02:45:07;;;;;;;;;;;;;;;21.07;51.27;100761.91;2116245;28;1325;-34
2021/03/27 02:46:08;;;;;;;;;;;;;;;21.08;51.25;100763.53;2113748;28;2380;-37
2021/03/27 02:47:09;;;;;;;;;;;;;;;21.07;51.26;100757.03;2116426;28;1491;-36
2021/03/27 02:48:10;;;;;;;;;;;;;;;21.07;51.42;100757.03;2113788;28;2237;-36
2021/03/27 02:49:11;;;;;;;;;;;;;;;21.07;51.40;100756.22;2108980;28;2176;-38
2021/03/27 02:50:12;;;;;;;;;;;;;;;21.07;51.26;100756.22;2116290;28;1756;-38
2021/03/27 02:51:13;;;;;;;;;;;;;;;21.07;51.34;100768.41;2108021;28;1638;-34
2021/03/27 02:52:14;;;;;;;;;;;;;;;21.06;51.30;100761.06;2108048;28;2642;-38
2021/03/27 02:53:14;;;;;;;;;;;;;;;21.07;51.44;100757.03;2113974;28;2113;-34
2021/03/27 02:54:15;;;;;;;;;;;;;;;21.06;51.38;100752.53;2116246;28;1225;-36
2021/03/27 02:55:16;;;;;;;;;;;;;;;21.07;51.27;100757.03;2108442;28;2214;-36
2021/03/27 02:56:17;;;;;;;;;;;;;;;21.07;51.48;100754.19;2111863;28;2123;-34
2021/03/27 02:57:17;;;;;;;;;;;;;;;21.06;51.38;100749.69;2116314;28;2592;-33
2021/03/27 02:58:18;;;;;;;;;;;;;;;21.07;51.48;100754.19;2112327;28;2579;-34
2021/03/27 02:59:20;;;;;;;;;;;;;;;21.06;51.28;100744.00;2108827;28;2283;-34
2021/03/27 03:00:21;;;;;;;;;;;;;;;21.06;51.23;100744.00;2112197;28;2662;-36
2021/03/27 03:01:22;;;;;;;;;;;;;;;21.06;51.24;100746.00;2113590;28;2067;-37
2021/03/27 03:02:22;;;;;;;;;;;;;;;21.06;51.21;100751.69;2115626;28;1217;-31
2021/03/27 03:03:23;;;;;;;;;;;;;;;21.07;51.28;100744.84;2110176;28;3646;-32
2021/03/27 03:04:24;;;;;;;;;;;;;;;21.07;51.38;100739.16;2114932;28;2089;-36
2021/03/27 03:05:25;;;;;;;;;;;;;;;21.07;51.16;100742.00;2116383;28;1372;-36
2021/03/27 03:06:26;;;;;;;;;;;;;;;21.06;51.40;100752.53;2114341;28;1590;-33
2021/03/27 03:07:27;;;;;;;;;;;;;;;21.06;51.42;100741.16;2115559;28;2289;-37
2021/03/27 03:08:27;;;;;;;;;;;;;;;21.07;51.38;100747.69;2108172;28;2357;-34
2021/03/27 03:09:28;;;;;;;;;;;;;;;21.06;51.15;100749.69;2113265;28;2262;-36
2021/03/27 03:10:29;;;;;;;;;;;;;;;21.06;51.37;100746.84;2115383;28;1278;-36
2021/03/27 03:11:30;;;;;;;;;;;;;;;21.06;51.23;100737.47;2116280;28;1086;-33
2021/03/27 03:12:30;;;;;;;;;;;;;;;21.07;51.26;100744.84;2116071;28;1200;-34
2021/03/27 03:13:31;;;;;;;;;;;;;;;21.06;51.26;100738.31;2111382;28;2219;-33
2021/03/27 03:14:32;;;;;;;;;;;;;;;21.05;51.22;100733.78;2115036;28;1762;-42
2021/03/27 03:15:33;;;;;;;;;;;;;;;21.07;51.26;100739.16;2115596;28;2350;-34
2021/03/27 03:16:33;;;;;;;;;;;;;;;21.06;51.27;100731.78;2114816;28;2254;-36
2021/03/27 03:17:34;;;;;;;;;;;;;;;21.06;51.06;100732.63;2110178;28;2215;-37
2021/03/27 03:18:36;;;;;;;;;;;;;;;21.06;51.24;100731.78;2110653;28;2596;-37
2021/03/27 03:19:37;;;;;;;;;;;;;;;21.06;51.42;100737.47;2115029;28;2463;-35
2021/03/27 03:20:38;;;;;;;;;;;;;;;21.05;51.36;100730.94;2111144;28;2196;-38
2021/03/27 03:21:38;;;;;;;;;;;;;;;21.06;51.24;100734.63;2116242;28;1428;-38
2021/03/27 03:22:39;;;;;;;;;;;;;;;21.05;51.45;100728.09;2113212;28;2632;-36
2021/03/27 03:23:40;;;;;;;;;;;;;;;21.05;51.25;100730.94;2110905;28;2137;-31
2021/03/27 03:24:41;;;;;;;;;;;;;;;21.06;51.31;100728.94;2111199;28;2155;-39
2021/03/27 03:25:42;;;;;;;;;;;;;;;21.05;51.52;100733.78;2115758;28;1201;-35
2021/03/27 03:26:43;;;;;;;;;;;;;;;21.06;51.39;100737.47;2112726;28;2095;-36
2021/03/27 03:27:44;;;;;;;;;;;;;;;21.05;51.30;100730.94;2109711;28;2171;-34
2021/03/27 03:28:44;;;;;;;;;;;;;;;21.06;51.31;100728.94;2108098;28;2126;-37
2021/03/27 03:29:45;;;;;;;;;;;;;;;21.05;51.46;100727.28;2110001;28;2255;-36
2021/03/27 03:30:46;;;;;;;;;;;;;;;21.06;51.53;100728.94;2115952;28;1235;-36
2021/03/27 03:31:47;;;;;;;;;;;;;;;21.06;51.44;100731.78;2114547;28;2224;-33
2021/03/27 03:32:47;;;;;;;;;;;;;;;21.05;51.45;100728.09;2114103;28;2320;-31
2021/03/27 03:33:48;;;;;;;;;;;;;;;21.06;51.66;100728.94;2114361;28;2066;-36
2021/03/27 03:34:49;;;;;;;;;;;;;;;21.06;51.65;100729.78;2113123;28;2235;-35
2021/03/27 03:35:50;;;;;;;;;;;;;;;21.06;51.57;100726.94;2115712;28;1197;-38
2021/03/27 03:36:52;;;;;;;;;;;;;;;21.05;51.57;100730.13;2113950;28;3633;-33
2021/03/27 03:37:53;;;;;;;;;;;;;;;21.05;51.74;100719.56;2111006;28;2203;-34
2021/03/27 03:38:54;;;;;;;;;;;;;;;21.05;51.65;100719.56;2107921;28;2445;-34
2021/03/27 03:39:54;;;;;;;;;;;;;;;21.06;51.75;100720.41;2112143;28;2212;-34
2021/03/27 03:40:55;;;;;;;;;;;;;;;21.06;51.68;100726.09;2114606;28;2136;-33
2021/03/27 03:41:56;;;;;;;;;;;;;;;21.05;51.63;100719.56;2109188;28;2280;-36
2021/03/27 03:42:57;;;;;;;;;;;;;;;21.05;51.75;100719.56;2110182;28;2088;-36
2021/03/27 03:43:57;;;;;;;;;;;;;;;21.06;51.78;100717.56;2114441;28;1214;-36
2021/03/27 03:44:58;;;;;;;;;;;;;;;21.06;51.83;100711.88;2110130;28;2228;-37
2021/03/27 03:45:59;;;;;;;;;;;;;;;21.04;51.86;100715.09;2112997;28;1927;-34
2021/03/27 03:47:00;;;;;;;;;;;;;;;21.05;51.83;100707.38;2114451;28;1598;-37
2021/03/27 03:48:03;;;;;;;;;;;;;;;21.06;51.82;100703.34;2113871;28;1344;-37
2021/03/27 03:49:04;;;;;;;;;;;;;;;21.06;51.61;100697.63;2115450;28;1906;-34
2021/03/27 03:50:05;;;;;;;;;;;;;;;21.06;51.66;100694.81;2115456;28;1359;-40
2021/03/27 03:51:06;;;;;;;;;;;;;;;21.05;51.80;100696.81;2113735;28;1724;-34
2021/03/27 03:52:06;;;;;;;;;;;;;;;21.04;51.71;100697.19;2114275;28;1232;-36
2021/03/27 03:53:07;;;;;;;;;;;;;;;21.04;51.55;100703.72;2114736;28;2130;-36
2021/03/27 03:54:08;;;;;;;;;;;;;;;21.05;51.63;100701.69;2115463;28;1112;-34
2021/03/27 03:55:09;;;;;;;;;;;;;;;21.05;51.57;100704.53;2115734;28;1439;-36
2021/03/27 03:56:10;;;;;;;;;;;;;;;21.05;51.54;100708.19;2113753;28;1470;-34
2021/03/27 03:57:10;;;;;;;;;;;;;;;21.04;51.61;100706.56;2115656;28;1160;-37
2021/03/27 03:58:14;;;;;;;;;;;;;;;21.03;51.57;100707.72;2115409;27;1528;-37
2021/03/27 03:59:15;;;;;;;;;;;;;;;21.04;51.58;100712.25;2116077;28;1419;-33
2021/03/27 04:00:16;;;;;;;;;;;;;;;21.06;51.43;100717.56;2115983;28;1617;-33
2021/03/27 04:01:17;;;;;;;;;;;;;;;21.05;51.53;100718.75;2115446;28;1375;-36
2021/03/27 04:02:17;;;;;;;;;;;;;;;21.03;51.62;100716.25;2115727;28;1583;-37
2021/03/27 04:03:18;;;;;;;;;;;;;;;21.05;51.52;100718.75;2110417;28;2389;-37
2021/03/27 04:04:19;;;;;;;;;;;;;;;21.05;51.58;100718.75;2113434;28;2155;-35
2021/03/27 04:05:20;;;;;;;;;;;;;;;21.06;51.65;100726.09;2115300;28;1184;-33
2021/03/27 04:06:21;;;;;;;;;;;;;;;21.05;51.52;100718.75;2113923;28;1577;-35
2021/03/27 04:07:25;;;;;;;;;;;;;;;21.05;51.53;100715.91;2115450;28;1159;-34
2021/03/27 04:08:25;;;;;;;;;;;;;;;21.06;51.69;100726.09;2110264;28;1563;-37
2021/03/27 04:09:26;;;;;;;;;;;;;;;21.05;51.73;100721.59;2113163;28;1976;-32
2021/03/27 04:10:30;;;;;;;;;;;;;;;21.06;51.66;100724.09;2115350;28;1505;-37
2021/03/27 04:11:31;;;;;;;;;;;;;;;21.05;51.67;100725.25;2115537;28;1111;-36
2021/03/27 04:12:31;;;;;;;;;;;;;;;21.06;51.95;100734.63;2111731;28;2103;-35
2021/03/27 04:13:32;;;;;;;;;;;;;;;21.06;51.91;100723.25;2112043;28;2566;-40
2021/03/27 04:14:33;;;;;;;;;;;;;;;21.06;51.82;100728.94;2114515;28;2263;-36
2021/03/27 04:15:34;;;;;;;;;;;;;;;21.06;51.98;100731.78;2115287;28;1181;-33
2021/03/27 04:16:34;;;;;;;;;;;;;;;21.06;52.02;100723.25;2115325;28;2098;-36
2021/03/27 04:17:35;;;;;;;;;;;;;;;21.06;51.86;100726.09;2114327;28;2028;-34
2021/03/27 04:18:36;;;;;;;;;;;;;;;21.06;51.87;100721.25;2115585;28;1296;-37
2021/03/27 04:19:37;;;;;;;;;;;;;;;21.07;51.89;100724.91;2114959;28;1619;-37
2021/03/27 04:20:38;;;;;;;;;;;;;;;21.06;51.95;100723.25;2115692;28;1155;-32
2021/03/27 04:21:39;;;;;;;;;;;;;;;21.05;51.93;100724.44;2114453;28;2119;-38
2021/03/27 04:22:40;;;;;;;;;;;;;;;21.06;51.89;100728.94;2115412;28;1739;-32
2021/03/27 04:23:40;;;;;;;;;;;;;;;21.06;51.83;100726.09;2115226;28;1251;-36
2021/03/27 04:24:41;;;;;;;;;;;;;;;21.06;52.00;100726.09;2115626;28;1329;-34
2021/03/27 04:25:42;;;;;;;;;;;;;;;21.06;51.94;100726.94;2111847;28;1159;-35
2021/03/27 04:26:43;;;;;;;;;;;;;;;21.06;51.96;100720.41;2115512;28;1269;-36
2021/03/27 04:27:44;;;;;;;;;;;;;;;21.06;51.91;100723.25;2114663;28;1482;-35
2021/03/27 04:28:44;;;;;;;;;;;;;;;21.05;51.93;100728.09;2110500;28;2164;-37
2021/03/27 04:29:45;;;;;;;;;;;;;;;21.05;52.14;100730.94;2110464;28;2098;-36
2021/03/27 04:30:46;;;;;;;;;;;;;;;21.04;52.00;100720.78;2112380;28;2690;-33
2021/03/27 04:31:46;;;;;;;;;;;;;;;21.05;51.93;100713.88;2106126;27;3114;-37
2021/03/27 04:32:47;;;;;;;;;;;;;;;21.06;52.06;100720.41;2107621;28;2428;-33
2021/03/27 04:33:48;;;;;;;;;;;;;;;21.05;52.09;100718.75;2108003;27;2404;-37
2021/03/27 04:34:49;;;;;;;;;;;;;;;21.05;52.04;100715.91;2112546;28;1823;-33
2021/03/27 04:35:50;;;;;;;;;;;;;;;21.05;52.00;100722.41;2113251;28;1206;-36
2021/03/27 04:36:51;;;;;;;;;;;;;;;21.05;51.98;100707.38;2114873;28;3953;-34
2021/03/27 04:37:51;;;;;;;;;;;;;;;21.05;52.16;100713.06;2115411;28;1645;-36
2021/03/27 04:38:52;;;;;;;;;;;;;;;21.00;52.08;100701.91;2110792;28;2632;-32
2021/03/27 04:39:53;;;;;;;;;;;;;;;21.05;51.96;100713.88;2110777;28;1075;-33
2021/03/27 04:40:53;;;;;;;;;;;;;;;21.04;52.06;100709.41;2114176;28;2272;-34
2021/03/27 04:41:54;;;;;;;;;;;;;;;21.04;51.98;100712.25;2114524;28;1483;-35
2021/03/27 04:42:55;;;;;;;;;;;;;;;21.05;52.14;100715.91;2115649;28;1171;-38
2021/03/27 04:43:56;;;;;;;;;;;;;;;21.04;52.01;100714.25;2115160;28;1419;-35
2021/03/27 04:44:57;;;;;;;;;;;;;;;21.04;52.10;100717.94;2112618;28;1660;-37
2021/03/27 04:45:58;;;;;;;;;;;;;;;21.04;52.15;100717.94;2114668;28;1205;-35
2021/03/27 04:46:59;;;;;;;;;;;;;;;21.05;51.94;100716.72;2115298;28;1371;-37
2021/03/27 04:48:00;;;;;;;;;;;;;;;21.05;51.89;100713.88;2115326;28;1190;-32
2021/03/27 04:49:08;;;;;;;;;;;;;;;21.05;51.93;100707.38;2114727;28;1921;-35
2021/03/27 04:50:08;;;;;;;;;;;;;;;21.04;51.96;100700.88;2114770;28;1228;-34
2021/03/27 04:51:09;;;;;;;;;;;;;;;21.04;51.96;100703.72;2114532;28;2201;-35
2021/03/27 04:52:10;;;;;;;;;;;;;;;21.04;51.91;100712.25;2115509;28;1292;-38
2021/03/27 04:53:11;;;;;;;;;;;;;;;21.05;51.96;100707.38;2114840;28;1311;-36
2021/03/27 04:54:12;;;;;;;;;;;;;;;21.04;52.01;100708.56;2115099;28;1466;-37
2021/03/27 04:55:12;;;;;;;;;;;;;;;21.04;51.87;100712.25;2114187;28;1614;-37
2021/03/27 04:56:13;;;;;;;;;;;;;;;21.04;51.96;100712.25;2111144;28;1139;-36
2021/03/27 04:57:14;;;;;;;;;;;;;;;21.05;51.98;100713.06;2122562;28;1372;-38
2021/03/27 04:58:15;;;;;;;;;;;;;;;21.04;51.99;100708.56;2123116;27;1359;-35
2021/03/27 04:59:16;;;;;;;;;;;;;;;21.05;52.02;100713.88;2114058;28;1045;-41
2021/03/27 05:00:17;;;;;;;;;;;;;;;21.05;52.14;100713.88;2115320;28;1587;-33
2021/03/27 05:01:18;;;;;;;;;;;;;;;21.05;52.18;100705.34;2112078;28;2212;-34
2021/03/27 05:02:19;;;;;;;;;;;;;;;21.05;52.27;100704.53;2115352;28;1224;-36
2021/03/27 05:03:20;;;;;;;;;;;;;;;21.05;52.02;100713.88;2113929;28;3957;-35
2021/03/27 05:04:21;;;;;;;;;;;;;;;21.04;52.20;100708.56;2115259;28;1144;-36
2021/03/27 05:05:21;;;;;;;;;;;;;;;21.05;52.27;100707.38;2114746;28;1568;-37
2021/03/27 05:06:22;;;;;;;;;;;;;;;21.05;52.12;100702.50;2113018;28;1693;-35
2021/03/27 05:07:23;;;;;;;;;;;;;;;21.04;52.18;100692.31;2106278;28;1797;-33
2021/03/27 05:08:24;;;;;;;;;;;;;;;21.05;52.08;100696.00;2106407;28;1566;-32
2021/03/27 05:09:24;;;;;;;;;;;;;;;21.05;52.15;100704.53;2114785;28;1901;-32
2021/03/27 05:10:25;;;;;;;;;;;;;;;21.04;52.01;100700.88;2115518;28;1180;-37
2021/03/27 05:11:26;;;;;;;;;;;;;;;21.05;52.15;100701.69;2115001;28;1454;-37
2021/03/27 05:12:27;;;;;;;;;;;;;;;21.04;52.13;100700.88;2113362;28;2094;-34
2021/03/27 05:13:27;;;;;;;;;;;;;;;21.04;52.09;100700.88;2114668;28;1784;-39
2021/03/27 05:14:28;;;;;;;;;;;;;;;21.06;52.08;100703.34;2114174;28;1602;-38
2021/03/27 05:15:29;;;;;;;;;;;;;;;21.04;52.15;100697.19;2114834;28;2006;-34
2021/03/27 05:16:30;;;;;;;;;;;;;;;21.05;52.07;100698.84;2102693;28;1687;-33
2021/03/27 05:17:31;;;;;;;;;;;;;;;21.05;52.14;100701.69;2105831;28;1436;-38